sensor_id;sensor_type;location;lat;lon;timestamp;P1;durP1;ratioP1;P2;durP2;ratioP2
51228;SDS011;37304;52.216;6.874;2022-10-31T00:02:00;19.33;;;7.33;;
51228;SDS011;37304;52.216;6.874;2022-10-31T00:07:00;15.93;;;7.33;;
51228;SDS011;37304;52.216;6.874;2022-10-31T00:12:00;17.15;;;7.22;;
51228;SDS011;37304;52.216;6.874;2022-10-31T00:17:01;11.93;;;6.53;;
51228;SDS011;37304;52.216;6.874;2022-10-31T00:22:02;14.93;;;6.82;;
51228;SDS011;37304;52.216;6.874;2022-10-31T00:27:02;15.53;;;6.67;;
51228;SDS011;37304;52.216;6.874;2022-10-31T00:32:02;17.17;;;7.00;;
51228;SDS011;37304;52.216;6.874;2022-10-31T00:37:03;14.77;;;6.60;;
51228;SDS011;37304;52.216;6.874;2022-10-31T00:42:03;15.17;;;6.50;;
51228;SDS011;37304;52.216;6.874;2022-10-31T00:47:03;11.00;;;6.13;;
51228;SDS011;37304;52.216;6.874;2022-10-31T00:52:04;19.20;;;7.73;;
51228;SDS011;37304;52.216;6.874;2022-10-31T00:57:04;16.27;;;6.93;;
51228;SDS011;37304;52.216;6.874;2022-10-31T01:02:04;22.60;;;8.10;;
51228;SDS011;37304;52.216;6.874;2022-10-31T01:07:04;16.05;;;7.40;;
51228;SDS011;37304;52.216;6.874;2022-10-31T01:12:05;18.13;;;8.00;;
51228;SDS011;37304;52.216;6.874;2022-10-31T01:17:05;14.95;;;7.43;;
51228;SDS011;37304;52.216;6.874;2022-10-31T01:22:06;21.20;;;8.37;;
51228;SDS011;37304;52.216;6.874;2022-10-31T01:27:06;15.03;;;7.30;;
51228;SDS011;37304;52.216;6.874;2022-10-31T01:32:06;17.73;;;7.87;;
51228;SDS011;37304;52.216;6.874;2022-10-31T01:37:07;16.17;;;8.30;;
51228;SDS011;37304;52.216;6.874;2022-10-31T01:42:09;13.63;;;7.37;;
51228;SDS011;37304;52.216;6.874;2022-10-31T01:47:16;15.52;;;7.85;;
51228;SDS011;37304;52.216;6.874;2022-10-31T01:57:29;17.00;;;7.80;;
51228;SDS011;37304;52.216;6.874;2022-10-31T02:02:32;14.13;;;7.32;;
51228;SDS011;37304;52.216;6.874;2022-10-31T02:13:04;15.73;;;7.90;;
51228;SDS011;37304;52.216;6.874;2022-10-31T02:18:07;16.92;;;7.07;;
51228;SDS011;37304;52.216;6.874;2022-10-31T02:33:25;15.35;;;7.57;;
51228;SDS011;37304;52.216;6.874;2022-10-31T02:38:42;20.65;;;7.05;;
51228;SDS011;37304;52.216;6.874;2022-10-31T02:50:18;15.27;;;7.32;;
51228;SDS011;37304;52.216;6.874;2022-10-31T02:55:09;15.38;;;7.50;;
51228;SDS011;37304;52.216;6.874;2022-10-31T03:00:11;19.25;;;8.70;;
51228;SDS011;37304;52.216;6.874;2022-10-31T03:10:31;15.23;;;7.68;;
51228;SDS011;37304;52.216;6.874;2022-10-31T03:15:33;19.95;;;7.82;;
51228;SDS011;37304;52.216;6.874;2022-10-31T03:20:42;20.40;;;8.20;;
51228;SDS011;37304;52.216;6.874;2022-10-31T03:25:47;17.73;;;7.90;;
51228;SDS011;37304;52.216;6.874;2022-10-31T03:30:48;21.23;;;7.95;;
51228;SDS011;37304;52.216;6.874;2022-10-31T03:35:52;21.30;;;9.13;;
51228;SDS011;37304;52.216;6.874;2022-10-31T03:40:57;17.85;;;8.77;;
51228;SDS011;37304;52.216;6.874;2022-10-31T03:46:00;14.48;;;8.27;;
51228;SDS011;37304;52.216;6.874;2022-10-31T03:56:33;19.90;;;9.70;;
51228;SDS011;37304;52.216;6.874;2022-10-31T04:01:38;20.30;;;9.52;;
51228;SDS011;37304;52.216;6.874;2022-10-31T04:06:43;17.83;;;8.80;;
51228;SDS011;37304;52.216;6.874;2022-10-31T04:11:48;23.73;;;9.02;;
51228;SDS011;37304;52.216;6.874;2022-10-31T04:16:51;24.00;;;8.80;;
51228;SDS011;37304;52.216;6.874;2022-10-31T04:21:51;21.63;;;8.95;;
51228;SDS011;37304;52.216;6.874;2022-10-31T04:26:52;20.77;;;9.03;;
51228;SDS011;37304;52.216;6.874;2022-10-31T04:31:52;20.60;;;9.23;;
51228;SDS011;37304;52.216;6.874;2022-10-31T04:36:52;20.17;;;9.17;;
51228;SDS011;37304;52.216;6.874;2022-10-31T04:41:53;20.13;;;10.23;;
51228;SDS011;37304;52.216;6.874;2022-10-31T04:46:53;22.73;;;9.00;;
51228;SDS011;37304;52.216;6.874;2022-10-31T04:51:53;19.73;;;9.97;;
51228;SDS011;37304;52.216;6.874;2022-10-31T05:01:54;16.65;;;8.52;;
51228;SDS011;37304;52.216;6.874;2022-10-31T05:11:54;16.83;;;8.27;;
51228;SDS011;37304;52.216;6.874;2022-10-31T05:21:55;21.63;;;9.82;;
51228;SDS011;37304;52.216;6.874;2022-10-31T05:31:55;21.88;;;8.20;;
51228;SDS011;37304;52.216;6.874;2022-10-31T05:36:56;19.63;;;8.68;;
51228;SDS011;37304;52.216;6.874;2022-10-31T05:41:56;21.02;;;9.48;;
51228;SDS011;37304;52.216;6.874;2022-10-31T05:46:56;19.35;;;8.63;;
51228;SDS011;37304;52.216;6.874;2022-10-31T05:56:57;21.00;;;9.90;;
51228;SDS011;37304;52.216;6.874;2022-10-31T06:01:58;20.40;;;9.55;;
51228;SDS011;37304;52.216;6.874;2022-10-31T06:06:58;22.63;;;10.85;;
51228;SDS011;37304;52.216;6.874;2022-10-31T06:16:59;20.65;;;10.40;;
51228;SDS011;37304;52.216;6.874;2022-10-31T06:26:59;21.40;;;10.35;;
51228;SDS011;37304;52.216;6.874;2022-10-31T06:37:00;24.20;;;11.07;;
51228;SDS011;37304;52.216;6.874;2022-10-31T06:47:01;22.20;;;10.55;;
51228;SDS011;37304;52.216;6.874;2022-10-31T06:52:01;20.90;;;11.00;;
51228;SDS011;37304;52.216;6.874;2022-10-31T06:57:02;19.93;;;9.37;;
51228;SDS011;37304;52.216;6.874;2022-10-31T07:02:02;24.57;;;11.27;;
51228;SDS011;37304;52.216;6.874;2022-10-31T07:07:02;24.00;;;10.20;;
51228;SDS011;37304;52.216;6.874;2022-10-31T07:12:03;25.35;;;10.88;;
51228;SDS011;37304;52.216;6.874;2022-10-31T07:17:03;22.60;;;10.43;;
51228;SDS011;37304;52.216;6.874;2022-10-31T07:22:04;22.48;;;10.90;;
51228;SDS011;37304;52.216;6.874;2022-10-31T07:27:04;26.80;;;10.87;;
51228;SDS011;37304;52.216;6.874;2022-10-31T07:32:04;22.07;;;9.87;;
51228;SDS011;37304;52.216;6.874;2022-10-31T07:37:05;23.52;;;10.75;;
51228;SDS011;37304;52.216;6.874;2022-10-31T07:47:05;23.77;;;10.98;;
51228;SDS011;37304;52.216;6.874;2022-10-31T07:52:05;20.60;;;10.70;;
51228;SDS011;37304;52.216;6.874;2022-10-31T07:57:06;27.17;;;11.43;;
51228;SDS011;37304;52.216;6.874;2022-10-31T08:02:07;23.77;;;11.43;;
51228;SDS011;37304;52.216;6.874;2022-10-31T08:07:08;27.48;;;11.48;;
51228;SDS011;37304;52.216;6.874;2022-10-31T08:12:08;22.87;;;11.73;;
51228;SDS011;37304;52.216;6.874;2022-10-31T08:17:09;26.00;;;11.87;;
51228;SDS011;37304;52.216;6.874;2022-10-31T08:22:09;24.08;;;10.80;;
51228;SDS011;37304;52.216;6.874;2022-10-31T08:27:10;28.15;;;12.70;;
51228;SDS011;37304;52.216;6.874;2022-10-31T08:32:10;24.73;;;10.60;;
51228;SDS011;37304;52.216;6.874;2022-10-31T08:37:10;24.55;;;11.23;;
51228;SDS011;37304;52.216;6.874;2022-10-31T08:42:11;22.80;;;11.07;;
51228;SDS011;37304;52.216;6.874;2022-10-31T08:47:11;21.80;;;9.80;;
51228;SDS011;37304;52.216;6.874;2022-10-31T08:52:11;19.90;;;9.47;;
51228;SDS011;37304;52.216;6.874;2022-10-31T08:57:11;20.87;;;9.27;;
51228;SDS011;37304;52.216;6.874;2022-10-31T09:02:12;15.87;;;8.90;;
51228;SDS011;37304;52.216;6.874;2022-10-31T09:07:12;20.17;;;8.90;;
51228;SDS011;37304;52.216;6.874;2022-10-31T09:12:12;23.08;;;8.88;;
51228;SDS011;37304;52.216;6.874;2022-10-31T09:17:13;21.67;;;9.40;;
51228;SDS011;37304;52.216;6.874;2022-10-31T09:22:13;17.95;;;8.65;;
51228;SDS011;37304;52.216;6.874;2022-10-31T09:27:14;21.33;;;9.13;;
51228;SDS011;37304;52.216;6.874;2022-10-31T09:32:14;16.17;;;7.40;;
51228;SDS011;37304;52.216;6.874;2022-10-31T09:37:14;13.43;;;7.13;;
51228;SDS011;37304;52.216;6.874;2022-10-31T09:47:44;9.00;;;5.00;;
51228;SDS011;37304;52.216;6.874;2022-10-31T09:53:09;8.75;;;4.32;;
51228;SDS011;37304;52.216;6.874;2022-10-31T09:58:40;7.03;;;3.72;;
51228;SDS011;37304;52.216;6.874;2022-10-31T10:03:46;9.18;;;4.13;;
51228;SDS011;37304;52.216;6.874;2022-10-31T10:08:49;10.10;;;3.90;;
51228;SDS011;37304;52.216;6.874;2022-10-31T10:19:16;5.53;;;2.72;;
51228;SDS011;37304;52.216;6.874;2022-10-31T10:24:59;7.22;;;2.90;;
51228;SDS011;37304;52.216;6.874;2022-10-31T10:30:20;7.57;;;2.97;;
51228;SDS011;37304;52.216;6.874;2022-10-31T10:35:27;4.95;;;2.55;;
51228;SDS011;37304;52.216;6.874;2022-10-31T10:40:32;5.15;;;2.78;;
51228;SDS011;37304;52.216;6.874;2022-10-31T10:45:34;6.38;;;3.08;;
51228;SDS011;37304;52.216;6.874;2022-10-31T10:50:53;8.98;;;3.75;;
51228;SDS011;37304;52.216;6.874;2022-10-31T10:55:56;6.50;;;3.60;;
51228;SDS011;37304;52.216;6.874;2022-10-31T11:01:08;7.70;;;3.55;;
51228;SDS011;37304;52.216;6.874;2022-10-31T11:06:21;7.53;;;4.10;;
51228;SDS011;37304;52.216;6.874;2022-10-31T11:11:26;6.68;;;3.90;;
51228;SDS011;37304;52.216;6.874;2022-10-31T11:16:32;7.68;;;3.90;;
51228;SDS011;37304;52.216;6.874;2022-10-31T11:21:36;6.68;;;3.33;;
51228;SDS011;37304;52.216;6.874;2022-10-31T11:26:37;7.50;;;3.40;;
51228;SDS011;37304;52.216;6.874;2022-10-31T11:31:40;5.13;;;3.10;;
51228;SDS011;37304;52.216;6.874;2022-10-31T11:36:42;8.40;;;3.42;;
51228;SDS011;37304;52.216;6.874;2022-10-31T11:41:44;9.23;;;4.15;;
51228;SDS011;37304;52.216;6.874;2022-10-31T11:46:47;11.68;;;4.47;;
51228;SDS011;37304;52.216;6.874;2022-10-31T11:51:53;11.52;;;4.10;;
51228;SDS011;37304;52.216;6.874;2022-10-31T11:56:56;8.80;;;3.75;;
51228;SDS011;37304;52.216;6.874;2022-10-31T12:01:58;8.20;;;3.78;;
51228;SDS011;37304;52.216;6.874;2022-10-31T12:06:59;10.07;;;4.60;;
51228;SDS011;37304;52.216;6.874;2022-10-31T12:17:37;11.88;;;4.43;;
51228;SDS011;37304;52.216;6.874;2022-10-31T12:22:47;11.05;;;5.00;;
51228;SDS011;37304;52.216;6.874;2022-10-31T12:33:45;20.35;;;7.00;;
51228;SDS011;37304;52.216;6.874;2022-10-31T13:00:19;22.30;;;9.07;;
51228;SDS011;37304;52.216;6.874;2022-10-31T13:05:54;19.42;;;9.50;;
51228;SDS011;37304;52.216;6.874;2022-10-31T13:10:51;21.80;;;9.27;;
51228;SDS011;37304;52.216;6.874;2022-10-31T13:21:50;22.27;;;9.55;;
51228;SDS011;37304;52.216;6.874;2022-10-31T13:26:56;20.38;;;9.13;;
51228;SDS011;37304;52.216;6.874;2022-10-31T13:32:05;21.27;;;10.15;;
51228;SDS011;37304;52.216;6.874;2022-10-31T13:37:13;27.27;;;10.93;;
51228;SDS011;37304;52.216;6.874;2022-10-31T13:47:28;23.95;;;11.15;;
51228;SDS011;37304;52.216;6.874;2022-10-31T13:52:29;27.02;;;11.90;;
51228;SDS011;37304;52.216;6.874;2022-10-31T13:57:48;29.13;;;12.63;;
51228;SDS011;37304;52.216;6.874;2022-10-31T14:02:49;26.90;;;12.32;;
51228;SDS011;37304;52.216;6.874;2022-10-31T14:07:52;26.48;;;13.00;;
51228;SDS011;37304;52.216;6.874;2022-10-31T14:13:05;30.35;;;11.57;;
51228;SDS011;37304;52.216;6.874;2022-10-31T14:18:16;23.73;;;12.05;;
51228;SDS011;37304;52.216;6.874;2022-10-31T14:28:37;33.08;;;12.52;;
51228;SDS011;37304;52.216;6.874;2022-10-31T14:33:40;26.67;;;12.03;;
51228;SDS011;37304;52.216;6.874;2022-10-31T14:44:15;29.55;;;12.05;;
51228;SDS011;37304;52.216;6.874;2022-10-31T14:49:34;29.02;;;11.73;;
51228;SDS011;37304;52.216;6.874;2022-10-31T14:54:52;28.90;;;11.23;;
51228;SDS011;37304;52.216;6.874;2022-10-31T14:59:56;26.60;;;10.98;;
51228;SDS011;37304;52.216;6.874;2022-10-31T15:05:01;28.02;;;11.02;;
51228;SDS011;37304;52.216;6.874;2022-10-31T15:10:19;24.75;;;11.73;;
51228;SDS011;37304;52.216;6.874;2022-10-31T15:15:24;25.77;;;11.52;;
51228;SDS011;37304;52.216;6.874;2022-10-31T15:20:26;28.95;;;12.27;;
51228;SDS011;37304;52.216;6.874;2022-10-31T15:25:30;25.55;;;11.55;;
51228;SDS011;37304;52.216;6.874;2022-10-31T15:30:33;26.58;;;10.70;;
51228;SDS011;37304;52.216;6.874;2022-10-31T15:35:34;26.53;;;11.47;;
51228;SDS011;37304;52.216;6.874;2022-10-31T15:40:34;25.43;;;12.30;;
51228;SDS011;37304;52.216;6.874;2022-10-31T15:45:36;29.75;;;14.50;;
51228;SDS011;37304;52.216;6.874;2022-10-31T15:50:38;25.90;;;11.50;;
51228;SDS011;37304;52.216;6.874;2022-10-31T15:55:45;24.15;;;11.98;;
51228;SDS011;37304;52.216;6.874;2022-10-31T16:06:23;30.77;;;12.15;;
51228;SDS011;37304;52.216;6.874;2022-10-31T16:16:34;32.50;;;11.07;;
51228;SDS011;37304;52.216;6.874;2022-10-31T16:21:47;36.17;;;12.63;;
51228;SDS011;37304;52.216;6.874;2022-10-31T16:26:50;34.63;;;13.02;;
51228;SDS011;37304;52.216;6.874;2022-10-31T16:31:53;29.35;;;13.93;;
51228;SDS011;37304;52.216;6.874;2022-10-31T16:36:54;34.17;;;12.57;;
51228;SDS011;37304;52.216;6.874;2022-10-31T16:41:54;39.97;;;14.63;;
51228;SDS011;37304;52.216;6.874;2022-10-31T16:52:16;49.22;;;17.10;;
51228;SDS011;37304;52.216;6.874;2022-10-31T16:57:18;34.40;;;15.98;;
51228;SDS011;37304;52.216;6.874;2022-10-31T17:02:23;32.05;;;12.60;;
51228;SDS011;37304;52.216;6.874;2022-10-31T17:07:24;35.50;;;14.53;;
51228;SDS011;37304;52.216;6.874;2022-10-31T17:12:24;31.93;;;13.83;;
51228;SDS011;37304;52.216;6.874;2022-10-31T17:17:26;30.90;;;13.15;;
51228;SDS011;37304;52.216;6.874;2022-10-31T17:22:27;32.33;;;13.97;;
51228;SDS011;37304;52.216;6.874;2022-10-31T17:27:27;27.02;;;12.55;;
51228;SDS011;37304;52.216;6.874;2022-10-31T17:32:27;32.20;;;12.40;;
51228;SDS011;37304;52.216;6.874;2022-10-31T17:37:28;29.40;;;12.90;;
51228;SDS011;37304;52.216;6.874;2022-10-31T17:42:28;33.00;;;13.27;;
51228;SDS011;37304;52.216;6.874;2022-10-31T17:47:28;33.30;;;12.27;;
51228;SDS011;37304;52.216;6.874;2022-10-31T17:52:29;36.27;;;12.97;;
51228;SDS011;37304;52.216;6.874;2022-10-31T17:57:33;27.87;;;11.67;;
51228;SDS011;37304;52.216;6.874;2022-10-31T18:02:35;27.67;;;12.10;;
51228;SDS011;37304;52.216;6.874;2022-10-31T18:07:35;26.73;;;12.10;;
51228;SDS011;37304;52.216;6.874;2022-10-31T18:12:36;27.63;;;12.47;;
51228;SDS011;37304;52.216;6.874;2022-10-31T18:17:37;26.77;;;11.35;;
51228;SDS011;37304;52.216;6.874;2022-10-31T18:22:37;25.93;;;12.10;;
51228;SDS011;37304;52.216;6.874;2022-10-31T18:27:38;28.60;;;10.88;;
51228;SDS011;37304;52.216;6.874;2022-10-31T18:32:38;29.80;;;11.60;;
51228;SDS011;37304;52.216;6.874;2022-10-31T18:37:38;24.05;;;9.88;;
51228;SDS011;37304;52.216;6.874;2022-10-31T18:42:39;31.30;;;10.73;;
51228;SDS011;37304;52.216;6.874;2022-10-31T18:47:39;27.20;;;10.60;;
51228;SDS011;37304;52.216;6.874;2022-10-31T18:52:39;26.50;;;10.47;;
51228;SDS011;37304;52.216;6.874;2022-10-31T18:57:41;23.83;;;11.20;;
51228;SDS011;37304;52.216;6.874;2022-10-31T19:02:41;22.30;;;10.47;;
51228;SDS011;37304;52.216;6.874;2022-10-31T19:07:41;25.13;;;9.97;;
51228;SDS011;37304;52.216;6.874;2022-10-31T19:12:42;20.97;;;10.03;;
51228;SDS011;37304;52.216;6.874;2022-10-31T19:17:42;22.57;;;10.10;;
51228;SDS011;37304;52.216;6.874;2022-10-31T19:22:42;25.37;;;10.27;;
51228;SDS011;37304;52.216;6.874;2022-10-31T19:27:43;20.20;;;8.87;;
51228;SDS011;37304;52.216;6.874;2022-10-31T19:32:43;23.33;;;9.00;;
51228;SDS011;37304;52.216;6.874;2022-10-31T19:37:44;23.13;;;9.00;;
51228;SDS011;37304;52.216;6.874;2022-10-31T19:42:44;20.33;;;9.43;;
51228;SDS011;37304;52.216;6.874;2022-10-31T19:47:44;24.37;;;10.03;;
51228;SDS011;37304;52.216;6.874;2022-10-31T19:52:45;22.20;;;9.47;;
51228;SDS011;37304;52.216;6.874;2022-10-31T19:57:46;27.33;;;10.98;;
51228;SDS011;37304;52.216;6.874;2022-10-31T20:02:46;25.17;;;9.18;;
51228;SDS011;37304;52.216;6.874;2022-10-31T20:07:46;26.13;;;9.52;;
51228;SDS011;37304;52.216;6.874;2022-10-31T20:12:47;21.60;;;8.83;;
51228;SDS011;37304;52.216;6.874;2022-10-31T20:17:47;22.27;;;9.82;;
51228;SDS011;37304;52.216;6.874;2022-10-31T20:22:48;27.03;;;11.13;;
51228;SDS011;37304;52.216;6.874;2022-10-31T20:27:49;27.83;;;10.35;;
51228;SDS011;37304;52.216;6.874;2022-10-31T20:32:49;25.07;;;9.57;;
51228;SDS011;37304;52.216;6.874;2022-10-31T20:37:50;18.70;;;8.10;;
51228;SDS011;37304;52.216;6.874;2022-10-31T20:42:50;18.27;;;6.83;;
51228;SDS011;37304;52.216;6.874;2022-10-31T20:47:52;19.73;;;6.60;;
51228;SDS011;37304;52.216;6.874;2022-10-31T20:52:52;15.65;;;6.28;;
51228;SDS011;37304;52.216;6.874;2022-10-31T20:57:53;15.07;;;5.40;;
51228;SDS011;37304;52.216;6.874;2022-10-31T21:02:53;13.20;;;5.95;;
51228;SDS011;37304;52.216;6.874;2022-10-31T21:07:54;10.13;;;5.53;;
51228;SDS011;37304;52.216;6.874;2022-10-31T21:12:54;15.43;;;5.30;;
51228;SDS011;37304;52.216;6.874;2022-10-31T21:17:54;12.13;;;5.20;;
51228;SDS011;37304;52.216;6.874;2022-10-31T21:22:55;13.47;;;5.33;;
51228;SDS011;37304;52.216;6.874;2022-10-31T21:27:55;13.30;;;4.40;;
51228;SDS011;37304;52.216;6.874;2022-10-31T21:32:55;12.20;;;4.30;;
51228;SDS011;37304;52.216;6.874;2022-10-31T21:37:56;9.65;;;4.68;;
51228;SDS011;37304;52.216;6.874;2022-10-31T21:42:57;12.48;;;3.95;;
51228;SDS011;37304;52.216;6.874;2022-10-31T21:47:57;12.00;;;4.10;;
51228;SDS011;37304;52.216;6.874;2022-10-31T21:52:58;12.45;;;3.80;;
51228;SDS011;37304;52.216;6.874;2022-10-31T21:58:19;11.57;;;4.30;;
51228;SDS011;37304;52.216;6.874;2022-10-31T22:03:19;10.35;;;3.33;;
51228;SDS011;37304;52.216;6.874;2022-10-31T22:08:19;10.50;;;3.90;;
51228;SDS011;37304;52.216;6.874;2022-10-31T22:13:20;11.93;;;3.58;;
51228;SDS011;37304;52.216;6.874;2022-10-31T22:18:20;9.60;;;3.87;;
51228;SDS011;37304;52.216;6.874;2022-10-31T22:23:20;6.27;;;3.07;;
51228;SDS011;37304;52.216;6.874;2022-10-31T22:28:21;13.00;;;4.43;;
51228;SDS011;37304;52.216;6.874;2022-10-31T22:33:21;8.10;;;3.07;;
51228;SDS011;37304;52.216;6.874;2022-10-31T22:38:21;7.40;;;3.33;;
51228;SDS011;37304;52.216;6.874;2022-10-31T22:43:22;10.53;;;3.33;;
51228;SDS011;37304;52.216;6.874;2022-10-31T22:48:22;6.83;;;2.90;;
51228;SDS011;37304;52.216;6.874;2022-10-31T22:53:22;13.65;;;3.08;;
51228;SDS011;37304;52.216;6.874;2022-10-31T22:58:23;8.60;;;3.40;;
51228;SDS011;37304;52.216;6.874;2022-10-31T23:03:23;5.93;;;3.33;;
51228;SDS011;37304;52.216;6.874;2022-10-31T23:08:24;5.88;;;2.50;;
51228;SDS011;37304;52.216;6.874;2022-10-31T23:13:26;10.05;;;3.30;;
51228;SDS011;37304;52.216;6.874;2022-10-31T23:18:45;6.78;;;3.08;;
51228;SDS011;37304;52.216;6.874;2022-10-31T23:23:45;6.50;;;3.03;;
51228;SDS011;37304;52.216;6.874;2022-10-31T23:28:45;7.27;;;3.60;;
51228;SDS011;37304;52.216;6.874;2022-10-31T23:33:46;9.63;;;3.50;;
51228;SDS011;37304;52.216;6.874;2022-10-31T23:38:46;9.10;;;3.57;;
51228;SDS011;37304;52.216;6.874;2022-10-31T23:43:49;7.07;;;3.30;;
51228;SDS011;37304;52.216;6.874;2022-10-31T23:48:50;8.00;;;2.70;;
51228;SDS011;37304;52.216;6.874;2022-10-31T23:53:52;7.93;;;3.03;;
51228;SDS011;37304;52.216;6.874;2022-10-31T23:58:52;5.70;;;2.90;;
